メインページ
METAR-TAF:

METAR-TAF

空港 :

バンコク, タイ

ドンムアン空港

緯度: 13-54-45N, 経度: 100-36-24E, 海抜: 4m

現時点の気象観測

当レポートは32分前の20:30(UTC)に作成
無風
気温 25°C
湿度 100%
気圧 1013 hPa
視程: 9000m

METAR: VTBD 292030Z 00000KT 9000 NSC 25/25 Q1013 NOSIG

時間: 04:02 (21:02 UTC)

予報

当レポートは4時間2分前の17:00(UTC)に作成
予報は29日の 18時(UTC)から 30日の 24時(UTC)まで有効
東/南東の風 5kt
視程10km以上
高度4000ftの雲はほとんどない
30日の 02時(UTC)から 30日の 04時(UTC)まで徐々に
の風 5kt
高度2000ftの雲はほとんどない
30日の 12時(UTC)から 30日の 14時(UTC)まで徐々に
高度4000ftの雲はほとんどない
30日の 20時(UTC)から 30日の 22時(UTC)まで徐々に
高度2000ftの雲は散在している

TAF: VTBD 291700Z 2918/3024 12005KT 9999 FEW040 BECMG 3002/3004 18005KT FEW020 BECMG 3012/3014 FEW040 BECMG 3020/3022 SCT020

4,000以上の空港の気象観測と天気予報(METAR報とTAF報)

利用可能な観測所は地図上に黄色い丸と赤い丸で示す。

丸の上にカーソルを重ねると観測所名を参照できる。

次にクリックすると気象観測と天気予報を参照できる。

マップの切り替え:黒色「×」印の緑ボタンをクリックして拡大、「-」印の緑ボタンをクリックして縮小、緑色の三角印をクリックして隣りの地図に切り替え


METAR-TAF: